Chester, UT (84623)

6:12 AM MDT on August 20, 2014 (GMT -0600)
KUTSPRIN7 | Change Station
CLOSE
Current Station
Personal Weather Station
Location: Spring City, UT
Elevation: 5843 ft
Nearby Weather Stations

Elev 5843 ft 39.48 °N, 111.49 °W | Updated 27 minutes ago

Mostly Cloudy
Mostly Cloudy
55.7 °F
Feels Like 55.7 °F
N
0.0
Wind Variable Wind from SE
Gusts 0.0 mph

Today
High -- | Low -- °F
--% Chance of Precip.
Yesterday
High -- | Low -- °F
Precip. -- in
6:43 AM 8:14 PM
Waning Crescent, 22% visible
Pressure 30.04 in
Visibility 10.0 miles
Clouds Mostly Cloudy 1100 ft
Mostly Cloudy 1700 ft
Mostly Cloudy 2600 ft
Dew Point 53 °F
Humidity 92%
Rainfall 0.18 in
Snow Depth 0 in , 0 in
UV 0.0 out of 12
Pollen 6.10 out of 12
Air Quality Not available.
Flu Activity Not available.
SPECI KPUC 201203Z AUTO 09004KT 10SM BKN011 BKN017 BKN026 15/13 A3004 RMK AO2 T01500133

More Conditions Fewer Conditions

Pressure 30.04 in
Visibility 10.0 miles
Clouds Mostly Cloudy 1100 ft
Mostly Cloudy 1700 ft
Mostly Cloudy 2600 ft
Dew Point 53 °F
Humidity 92%
Rainfall 0.18 in
Snow Depth 0 in , 0 in
UV 0.0 out of 12
Pollen 6.10 out of 12
Air Quality Not available.
Flu Activity Not available.
SPECI KPUC 201203Z AUTO 09004KT 10SM BKN011 BKN017 BKN026 15/13 A3004 RMK AO2 T01500133

More Conditions Fewer Conditions

10-Day Weather Forecast

Almanac

Astronomy

Aug. 20, 2014 Rise Set
Actual Time 6:43 AM MDT 8:14 PM MDT
Civil Twilight 6:15 AM MDT 8:43 PM MDT
Nautical Twilight 5:41 AM MDT 9:17 PM MDT
Astronomical Twilight 5:04 AM MDT 9:53 PM MDT
Moon 2:26 AM MDT 5:02 PM MDT
Length of Visible Light 14h 28m
Length of Day
13h 31m
Tomorrow will be 2m 22s shorter.
Waning Crescent, 22% of the Moon is Illuminated
Today
Waning Crescent
Aug 25
New
Sep 2
First Quarter
Sep 8
Full
Sep 15
Last Quarter

Today's Extremes

State Highs State Lows

Community

WunderPhotos

Upload Photos

1,745,617 photos uploaded!

WunderBlogs® & News

By Dr. Jeff Masters
Director of Meteorology, Weather Underground
By Kari Strenfel
Meteorologist, Weather Underground
By Christopher C. Burt
Weather Historian, Weather Underground
August 20, 2014
August 20, 2014
August 20, 2014

Nearby

Snow Depth

Station Depth Elevation
Seeley Creek 0 in 10000 ft
Red Pine Ridge 0 in 9200 ft
Clear Creek #1 0 in 9200 ft
Payson R.S. 0 in 8050 ft
Clear Creek #2 1 in 8300 ft

Earthquake Activity

City Distance Mag. Time & Date
No recent earthquake activity has been reported nearby.
Minimum magnitude displayed is 2.5.

Coastal Water Temperatures

Place Temperature
No Stations Reporting

Nearby Weather Stations